sensor_id;sensor_type;location;lat;lon;timestamp;P1;durP1;ratioP1;P2;durP2;ratioP2
15254;SDS011;7730;49.610;11.136;2024-01-07T00:02:07;11.98;;;5.97;;
15254;SDS011;7730;49.610;11.136;2024-01-07T00:04:34;13.60;;;6.60;;
15254;SDS011;7730;49.610;11.136;2024-01-07T00:07:03;13.80;;;6.53;;
15254;SDS011;7730;49.610;11.136;2024-01-07T00:09:30;13.90;;;6.30;;
15254;SDS011;7730;49.610;11.136;2024-01-07T00:11:57;13.63;;;6.43;;
15254;SDS011;7730;49.610;11.136;2024-01-07T00:14:24;12.30;;;6.50;;
15254;SDS011;7730;49.610;11.136;2024-01-07T00:16:51;12.50;;;6.30;;
15254;SDS011;7730;49.610;11.136;2024-01-07T00:19:20;13.00;;;6.60;;
15254;SDS011;7730;49.610;11.136;2024-01-07T00:21:47;14.13;;;6.87;;
15254;SDS011;7730;49.610;11.136;2024-01-07T00:24:17;13.32;;;6.22;;
15254;SDS011;7730;49.610;11.136;2024-01-07T00:26:44;13.77;;;6.87;;
15254;SDS011;7730;49.610;11.136;2024-01-07T00:29:11;13.27;;;6.75;;
15254;SDS011;7730;49.610;11.136;2024-01-07T00:31:38;13.50;;;7.10;;
15254;SDS011;7730;49.610;11.136;2024-01-07T00:34:05;13.35;;;7.13;;
15254;SDS011;7730;49.610;11.136;2024-01-07T00:36:32;14.75;;;7.20;;
15254;SDS011;7730;49.610;11.136;2024-01-07T00:38:59;14.23;;;6.93;;
15254;SDS011;7730;49.610;11.136;2024-01-07T00:41:27;13.88;;;6.55;;
15254;SDS011;7730;49.610;11.136;2024-01-07T00:43:55;13.30;;;7.00;;
15254;SDS011;7730;49.610;11.136;2024-01-07T00:46:22;14.13;;;7.00;;
15254;SDS011;7730;49.610;11.136;2024-01-07T00:48:49;13.63;;;6.55;;
15254;SDS011;7730;49.610;11.136;2024-01-07T00:51:16;13.27;;;6.60;;
15254;SDS011;7730;49.610;11.136;2024-01-07T00:53:43;13.23;;;6.87;;
15254;SDS011;7730;49.610;11.136;2024-01-07T00:56:10;13.65;;;6.75;;
15254;SDS011;7730;49.610;11.136;2024-01-07T00:58:38;12.93;;;6.40;;
15254;SDS011;7730;49.610;11.136;2024-01-07T01:01:05;14.07;;;7.00;;
15254;SDS011;7730;49.610;11.136;2024-01-07T01:03:32;12.45;;;6.00;;
15254;SDS011;7730;49.610;11.136;2024-01-07T01:05:59;13.73;;;6.70;;
15254;SDS011;7730;49.610;11.136;2024-01-07T01:08:27;13.30;;;6.33;;
15254;SDS011;7730;49.610;11.136;2024-01-07T01:10:54;11.88;;;6.13;;
15254;SDS011;7730;49.610;11.136;2024-01-07T01:13:21;12.10;;;5.80;;
15254;SDS011;7730;49.610;11.136;2024-01-07T01:15:51;11.50;;;5.60;;
15254;SDS011;7730;49.610;11.136;2024-01-07T01:18:18;12.13;;;5.70;;
15254;SDS011;7730;49.610;11.136;2024-01-07T01:20:45;12.27;;;6.00;;
15254;SDS011;7730;49.610;11.136;2024-01-07T01:23:12;11.33;;;5.30;;
15254;SDS011;7730;49.610;11.136;2024-01-07T01:25:39;12.27;;;5.57;;
15254;SDS011;7730;49.610;11.136;2024-01-07T01:28:06;10.50;;;4.60;;
15254;SDS011;7730;49.610;11.136;2024-01-07T01:30:33;11.40;;;5.43;;
15254;SDS011;7730;49.610;11.136;2024-01-07T01:33:02;11.83;;;5.10;;
15254;SDS011;7730;49.610;11.136;2024-01-07T01:35:29;11.67;;;5.60;;
15254;SDS011;7730;49.610;11.136;2024-01-07T01:37:56;11.45;;;5.40;;
15254;SDS011;7730;49.610;11.136;2024-01-07T01:40:23;12.30;;;5.43;;
15254;SDS011;7730;49.610;11.136;2024-01-07T01:42:50;11.03;;;5.37;;
15254;SDS011;7730;49.610;11.136;2024-01-07T01:45:17;11.30;;;5.23;;
15254;SDS011;7730;49.610;11.136;2024-01-07T01:47:44;11.25;;;5.35;;
15254;SDS011;7730;49.610;11.136;2024-01-07T01:50:13;10.77;;;4.80;;
15254;SDS011;7730;49.610;11.136;2024-01-07T01:52:42;11.17;;;5.13;;
15254;SDS011;7730;49.610;11.136;2024-01-07T01:55:09;11.90;;;5.13;;
15254;SDS011;7730;49.610;11.136;2024-01-07T01:57:37;11.68;;;5.22;;
15254;SDS011;7730;49.610;11.136;2024-01-07T02:00:05;11.93;;;5.50;;
15254;SDS011;7730;49.610;11.136;2024-01-07T02:02:33;11.10;;;5.13;;
15254;SDS011;7730;49.610;11.136;2024-01-07T02:05:00;11.47;;;4.87;;
15254;SDS011;7730;49.610;11.136;2024-01-07T02:07:28;11.43;;;5.17;;
15254;SDS011;7730;49.610;11.136;2024-01-07T02:09:56;11.30;;;5.20;;
15254;SDS011;7730;49.610;11.136;2024-01-07T02:12:23;11.53;;;4.90;;
15254;SDS011;7730;49.610;11.136;2024-01-07T02:14:50;9.77;;;4.27;;
15254;SDS011;7730;49.610;11.136;2024-01-07T02:17:18;11.45;;;5.07;;
15254;SDS011;7730;49.610;11.136;2024-01-07T02:19:45;11.60;;;4.90;;
15254;SDS011;7730;49.610;11.136;2024-01-07T02:22:12;9.83;;;4.37;;
15254;SDS011;7730;49.610;11.136;2024-01-07T02:24:40;9.30;;;4.40;;
15254;SDS011;7730;49.610;11.136;2024-01-07T02:27:08;9.93;;;4.30;;
15254;SDS011;7730;49.610;11.136;2024-01-07T02:29:35;12.07;;;4.70;;
15254;SDS011;7730;49.610;11.136;2024-01-07T02:32:02;9.33;;;4.40;;
15254;SDS011;7730;49.610;11.136;2024-01-07T02:34:29;10.20;;;4.70;;
15254;SDS011;7730;49.610;11.136;2024-01-07T02:36:56;10.57;;;4.87;;
15254;SDS011;7730;49.610;11.136;2024-01-07T02:39:25;11.03;;;4.73;;
15254;SDS011;7730;49.610;11.136;2024-01-07T02:41:53;11.77;;;4.87;;
15254;SDS011;7730;49.610;11.136;2024-01-07T02:44:20;10.00;;;4.40;;
15254;SDS011;7730;49.610;11.136;2024-01-07T02:46:47;12.03;;;4.80;;
15254;SDS011;7730;49.610;11.136;2024-01-07T02:49:14;10.87;;;4.60;;
15254;SDS011;7730;49.610;11.136;2024-01-07T02:51:41;11.35;;;4.88;;
15254;SDS011;7730;49.610;11.136;2024-01-07T02:54:10;11.07;;;4.45;;
15254;SDS011;7730;49.610;11.136;2024-01-07T02:56:39;10.87;;;4.90;;
15254;SDS011;7730;49.610;11.136;2024-01-07T02:59:07;10.65;;;4.85;;
15254;SDS011;7730;49.610;11.136;2024-01-07T03:01:34;10.47;;;4.50;;
15254;SDS011;7730;49.610;11.136;2024-01-07T03:04:05;11.35;;;4.70;;
15254;SDS011;7730;49.610;11.136;2024-01-07T03:06:32;11.07;;;4.73;;
15254;SDS011;7730;49.610;11.136;2024-01-07T03:09:00;10.47;;;5.03;;
15254;SDS011;7730;49.610;11.136;2024-01-07T03:11:27;11.10;;;4.83;;
15254;SDS011;7730;49.610;11.136;2024-01-07T03:13:54;9.83;;;4.70;;
15254;SDS011;7730;49.610;11.136;2024-01-07T03:16:23;11.70;;;4.83;;
15254;SDS011;7730;49.610;11.136;2024-01-07T03:18:50;10.43;;;4.90;;
15254;SDS011;7730;49.610;11.136;2024-01-07T03:21:17;11.20;;;4.80;;
15254;SDS011;7730;49.610;11.136;2024-01-07T03:23:45;10.17;;;4.23;;
15254;SDS011;7730;49.610;11.136;2024-01-07T03:26:12;11.00;;;4.77;;
15254;SDS011;7730;49.610;11.136;2024-01-07T03:28:39;10.57;;;4.88;;
15254;SDS011;7730;49.610;11.136;2024-01-07T03:31:07;11.20;;;4.97;;
15254;SDS011;7730;49.610;11.136;2024-01-07T03:33:36;12.03;;;4.97;;
15254;SDS011;7730;49.610;11.136;2024-01-07T03:36:06;11.80;;;5.50;;
15254;SDS011;7730;49.610;11.136;2024-01-07T03:38:34;12.70;;;5.50;;
15254;SDS011;7730;49.610;11.136;2024-01-07T03:41:01;11.07;;;4.90;;
15254;SDS011;7730;49.610;11.136;2024-01-07T03:43:28;11.03;;;4.80;;
15254;SDS011;7730;49.610;11.136;2024-01-07T03:45:55;11.50;;;5.00;;
15254;SDS011;7730;49.610;11.136;2024-01-07T03:48:22;10.93;;;4.93;;
15254;SDS011;7730;49.610;11.136;2024-01-07T03:50:50;10.23;;;4.63;;
15254;SDS011;7730;49.610;11.136;2024-01-07T03:53:17;10.37;;;4.80;;
15254;SDS011;7730;49.610;11.136;2024-01-07T03:55:44;11.27;;;5.20;;
15254;SDS011;7730;49.610;11.136;2024-01-07T03:58:11;10.70;;;4.60;;
15254;SDS011;7730;49.610;11.136;2024-01-07T04:00:38;10.67;;;4.80;;
15254;SDS011;7730;49.610;11.136;2024-01-07T04:03:05;10.37;;;4.40;;
15254;SDS011;7730;49.610;11.136;2024-01-07T04:05:32;11.37;;;4.73;;
15254;SDS011;7730;49.610;11.136;2024-01-07T04:08:01;11.37;;;4.97;;
15254;SDS011;7730;49.610;11.136;2024-01-07T04:10:28;11.13;;;4.77;;
15254;SDS011;7730;49.610;11.136;2024-01-07T04:12:55;10.93;;;4.72;;
15254;SDS011;7730;49.610;11.136;2024-01-07T04:15:22;10.88;;;4.50;;
15254;SDS011;7730;49.610;11.136;2024-01-07T04:17:49;10.87;;;4.60;;
15254;SDS011;7730;49.610;11.136;2024-01-07T04:20:16;10.90;;;4.50;;
15254;SDS011;7730;49.610;11.136;2024-01-07T04:22:43;10.23;;;4.40;;
15254;SDS011;7730;49.610;11.136;2024-01-07T04:25:12;9.73;;;4.20;;
15254;SDS011;7730;49.610;11.136;2024-01-07T04:27:39;8.23;;;3.97;;
15254;SDS011;7730;49.610;11.136;2024-01-07T04:30:07;8.83;;;3.90;;
15254;SDS011;7730;49.610;11.136;2024-01-07T04:32:35;8.67;;;3.80;;
15254;SDS011;7730;49.610;11.136;2024-01-07T04:35:02;8.43;;;3.77;;
15254;SDS011;7730;49.610;11.136;2024-01-07T04:37:29;8.57;;;3.87;;
15254;SDS011;7730;49.610;11.136;2024-01-07T04:39:56;9.77;;;4.07;;
15254;SDS011;7730;49.610;11.136;2024-01-07T04:42:25;8.63;;;3.87;;
15254;SDS011;7730;49.610;11.136;2024-01-07T04:44:52;9.73;;;4.10;;
15254;SDS011;7730;49.610;11.136;2024-01-07T04:47:27;9.47;;;4.17;;
15254;SDS011;7730;49.610;11.136;2024-01-07T04:49:59;8.25;;;3.53;;
15254;SDS011;7730;49.610;11.136;2024-01-07T04:52:26;9.67;;;3.87;;
15254;SDS011;7730;49.610;11.136;2024-01-07T04:54:53;8.80;;;3.70;;
15254;SDS011;7730;49.610;11.136;2024-01-07T04:57:20;7.88;;;3.63;;
15254;SDS011;7730;49.610;11.136;2024-01-07T04:59:49;8.05;;;3.70;;
15254;SDS011;7730;49.610;11.136;2024-01-07T05:02:16;9.00;;;3.70;;
15254;SDS011;7730;49.610;11.136;2024-01-07T05:04:43;10.23;;;4.27;;
15254;SDS011;7730;49.610;11.136;2024-01-07T05:07:11;9.13;;;3.90;;
15254;SDS011;7730;49.610;11.136;2024-01-07T05:09:38;10.23;;;4.20;;
15254;SDS011;7730;49.610;11.136;2024-01-07T05:12:06;8.73;;;3.97;;
15254;SDS011;7730;49.610;11.136;2024-01-07T05:14:34;10.50;;;4.33;;
15254;SDS011;7730;49.610;11.136;2024-01-07T05:17:03;10.47;;;4.43;;
15254;SDS011;7730;49.610;11.136;2024-01-07T05:19:30;10.30;;;4.50;;
15254;SDS011;7730;49.610;11.136;2024-01-07T05:21:58;10.00;;;4.33;;
15254;SDS011;7730;49.610;11.136;2024-01-07T05:24:27;10.87;;;4.87;;
15254;SDS011;7730;49.610;11.136;2024-01-07T05:26:55;11.40;;;4.53;;
15254;SDS011;7730;49.610;11.136;2024-01-07T05:29:22;10.30;;;4.80;;
15254;SDS011;7730;49.610;11.136;2024-01-07T05:31:49;10.57;;;4.70;;
15254;SDS011;7730;49.610;11.136;2024-01-07T05:34:19;10.57;;;4.63;;
15254;SDS011;7730;49.610;11.136;2024-01-07T05:36:46;11.40;;;4.90;;
15254;SDS011;7730;49.610;11.136;2024-01-07T05:39:13;11.20;;;4.70;;
15254;SDS011;7730;49.610;11.136;2024-01-07T05:41:40;11.23;;;4.90;;
15254;SDS011;7730;49.610;11.136;2024-01-07T05:44:07;9.60;;;4.50;;
15254;SDS011;7730;49.610;11.136;2024-01-07T05:46:37;10.20;;;4.43;;
15254;SDS011;7730;49.610;11.136;2024-01-07T05:49:05;10.80;;;4.93;;
15254;SDS011;7730;49.610;11.136;2024-01-07T05:51:33;11.03;;;4.93;;
15254;SDS011;7730;49.610;11.136;2024-01-07T05:54:01;11.53;;;4.90;;
15254;SDS011;7730;49.610;11.136;2024-01-07T05:56:28;10.32;;;4.50;;
15254;SDS011;7730;49.610;11.136;2024-01-07T05:58:55;11.87;;;5.33;;
15254;SDS011;7730;49.610;11.136;2024-01-07T06:01:22;12.53;;;5.83;;
15254;SDS011;7730;49.610;11.136;2024-01-07T06:03:49;12.37;;;5.50;;
15254;SDS011;7730;49.610;11.136;2024-01-07T06:06:16;11.77;;;5.30;;
15254;SDS011;7730;49.610;11.136;2024-01-07T06:08:47;12.17;;;5.23;;
15254;SDS011;7730;49.610;11.136;2024-01-07T06:11:14;11.63;;;5.27;;
15254;SDS011;7730;49.610;11.136;2024-01-07T06:13:45;11.67;;;5.50;;
15254;SDS011;7730;49.610;11.136;2024-01-07T06:16:12;12.17;;;5.40;;
15254;SDS011;7730;49.610;11.136;2024-01-07T06:18:39;12.23;;;5.43;;
15254;SDS011;7730;49.610;11.136;2024-01-07T06:21:06;12.83;;;5.40;;
15254;SDS011;7730;49.610;11.136;2024-01-07T06:23:33;12.17;;;5.63;;
15254;SDS011;7730;49.610;11.136;2024-01-07T06:26:03;11.90;;;5.77;;
15254;SDS011;7730;49.610;11.136;2024-01-07T06:28:31;11.10;;;5.20;;
15254;SDS011;7730;49.610;11.136;2024-01-07T06:30:58;12.18;;;5.50;;
15254;SDS011;7730;49.610;11.136;2024-01-07T06:33:25;11.83;;;5.47;;
15254;SDS011;7730;49.610;11.136;2024-01-07T06:35:52;12.00;;;5.30;;
15254;SDS011;7730;49.610;11.136;2024-01-07T06:38:19;12.53;;;5.93;;
15254;SDS011;7730;49.610;11.136;2024-01-07T06:40:46;13.03;;;6.20;;
15254;SDS011;7730;49.610;11.136;2024-01-07T06:43:14;11.80;;;5.57;;
15254;SDS011;7730;49.610;11.136;2024-01-07T06:45:41;12.47;;;6.03;;
15254;SDS011;7730;49.610;11.136;2024-01-07T06:48:09;12.30;;;6.00;;
15254;SDS011;7730;49.610;11.136;2024-01-07T06:50:36;12.50;;;6.07;;
15254;SDS011;7730;49.610;11.136;2024-01-07T06:53:03;12.00;;;5.50;;
15254;SDS011;7730;49.610;11.136;2024-01-07T06:55:30;11.68;;;5.30;;
15254;SDS011;7730;49.610;11.136;2024-01-07T06:57:57;11.90;;;5.83;;
15254;SDS011;7730;49.610;11.136;2024-01-07T07:00:25;12.30;;;5.75;;
15254;SDS011;7730;49.610;11.136;2024-01-07T07:02:52;12.53;;;6.20;;
15254;SDS011;7730;49.610;11.136;2024-01-07T07:05:19;13.15;;;6.80;;
15254;SDS011;7730;49.610;11.136;2024-01-07T07:07:46;12.90;;;6.40;;
15254;SDS011;7730;49.610;11.136;2024-01-07T07:10:13;13.60;;;7.03;;
15254;SDS011;7730;49.610;11.136;2024-01-07T07:12:40;14.07;;;7.47;;
15254;SDS011;7730;49.610;11.136;2024-01-07T07:15:07;13.20;;;6.83;;
15254;SDS011;7730;49.610;11.136;2024-01-07T07:17:36;8.40;;;3.67;;
15254;SDS011;7730;49.610;11.136;2024-01-07T07:20:03;14.03;;;6.90;;
15254;SDS011;7730;49.610;11.136;2024-01-07T07:22:30;13.10;;;6.70;;
15254;SDS011;7730;49.610;11.136;2024-01-07T07:24:57;13.30;;;6.73;;
15254;SDS011;7730;49.610;11.136;2024-01-07T07:27:24;13.73;;;6.63;;
15254;SDS011;7730;49.610;11.136;2024-01-07T07:29:51;13.30;;;6.47;;
15254;SDS011;7730;49.610;11.136;2024-01-07T07:32:18;12.73;;;6.50;;
15254;SDS011;7730;49.610;11.136;2024-01-07T07:34:47;13.03;;;6.57;;
15254;SDS011;7730;49.610;11.136;2024-01-07T07:37:14;13.00;;;6.23;;
15254;SDS011;7730;49.610;11.136;2024-01-07T07:39:41;12.80;;;6.33;;
15254;SDS011;7730;49.610;11.136;2024-01-07T07:42:08;13.00;;;6.57;;
15254;SDS011;7730;49.610;11.136;2024-01-07T07:44:36;13.03;;;6.70;;
15254;SDS011;7730;49.610;11.136;2024-01-07T07:47:04;12.67;;;5.97;;
15254;SDS011;7730;49.610;11.136;2024-01-07T07:49:31;14.77;;;7.40;;
15254;SDS011;7730;49.610;11.136;2024-01-07T07:51:59;14.37;;;7.67;;
15254;SDS011;7730;49.610;11.136;2024-01-07T07:54:26;13.00;;;6.57;;
15254;SDS011;7730;49.610;11.136;2024-01-07T07:56:53;13.33;;;6.10;;
15254;SDS011;7730;49.610;11.136;2024-01-07T07:59:20;12.80;;;6.23;;
15254;SDS011;7730;49.610;11.136;2024-01-07T08:01:47;13.90;;;6.70;;
15254;SDS011;7730;49.610;11.136;2024-01-07T08:04:15;12.57;;;6.07;;
15254;SDS011;7730;49.610;11.136;2024-01-07T08:06:42;13.10;;;6.63;;
15254;SDS011;7730;49.610;11.136;2024-01-07T08:09:11;12.70;;;6.40;;
15254;SDS011;7730;49.610;11.136;2024-01-07T08:11:38;12.90;;;6.50;;
15254;SDS011;7730;49.610;11.136;2024-01-07T08:14:05;12.80;;;6.30;;
15254;SDS011;7730;49.610;11.136;2024-01-07T08:16:34;12.57;;;6.07;;
15254;SDS011;7730;49.610;11.136;2024-01-07T08:19:01;11.43;;;5.47;;
15254;SDS011;7730;49.610;11.136;2024-01-07T08:21:28;13.50;;;6.40;;
15254;SDS011;7730;49.610;11.136;2024-01-07T08:23:55;12.73;;;6.50;;
15254;SDS011;7730;49.610;11.136;2024-01-07T08:26:23;12.53;;;6.37;;
15254;SDS011;7730;49.610;11.136;2024-01-07T08:28:50;13.63;;;6.57;;
15254;SDS011;7730;49.610;11.136;2024-01-07T08:31:17;13.00;;;6.10;;
15254;SDS011;7730;49.610;11.136;2024-01-07T08:33:44;12.20;;;6.00;;
15254;SDS011;7730;49.610;11.136;2024-01-07T08:36:11;13.27;;;6.63;;
15254;SDS011;7730;49.610;11.136;2024-01-07T08:38:38;12.67;;;6.30;;
15254;SDS011;7730;49.610;11.136;2024-01-07T08:41:05;13.30;;;6.77;;
15254;SDS011;7730;49.610;11.136;2024-01-07T08:43:34;13.83;;;6.80;;
15254;SDS011;7730;49.610;11.136;2024-01-07T08:46:02;15.00;;;8.00;;
15254;SDS011;7730;49.610;11.136;2024-01-07T08:48:29;14.07;;;7.20;;
15254;SDS011;7730;49.610;11.136;2024-01-07T08:50:56;13.80;;;7.35;;
15254;SDS011;7730;49.610;11.136;2024-01-07T08:53:23;13.40;;;6.90;;
15254;SDS011;7730;49.610;11.136;2024-01-07T08:55:50;12.83;;;6.60;;
15254;SDS011;7730;49.610;11.136;2024-01-07T08:58:17;13.80;;;6.60;;
15254;SDS011;7730;49.610;11.136;2024-01-07T09:00:46;14.10;;;6.90;;
15254;SDS011;7730;49.610;11.136;2024-01-07T09:03:13;13.60;;;6.77;;
15254;SDS011;7730;49.610;11.136;2024-01-07T09:05:40;13.73;;;7.03;;
15254;SDS011;7730;49.610;11.136;2024-01-07T09:08:08;13.90;;;7.43;;
15254;SDS011;7730;49.610;11.136;2024-01-07T09:10:36;13.70;;;6.97;;
15254;SDS011;7730;49.610;11.136;2024-01-07T09:13:03;14.60;;;7.40;;
15254;SDS011;7730;49.610;11.136;2024-01-07T09:15:30;13.80;;;7.03;;
15254;SDS011;7730;49.610;11.136;2024-01-07T09:17:58;13.77;;;7.27;;
15254;SDS011;7730;49.610;11.136;2024-01-07T09:20:25;13.30;;;7.00;;
15254;SDS011;7730;49.610;11.136;2024-01-07T09:22:52;14.03;;;7.07;;
15254;SDS011;7730;49.610;11.136;2024-01-07T09:25:19;14.87;;;7.70;;
15254;SDS011;7730;49.610;11.136;2024-01-07T09:27:46;13.83;;;7.20;;
15254;SDS011;7730;49.610;11.136;2024-01-07T09:30:13;15.18;;;8.52;;
15254;SDS011;7730;49.610;11.136;2024-01-07T09:32:40;15.30;;;8.33;;
15254;SDS011;7730;49.610;11.136;2024-01-07T09:35:09;15.33;;;8.00;;
15254;SDS011;7730;49.610;11.136;2024-01-07T09:37:36;14.60;;;7.50;;
15254;SDS011;7730;49.610;11.136;2024-01-07T09:40:03;15.00;;;8.03;;
15254;SDS011;7730;49.610;11.136;2024-01-07T09:42:31;16.53;;;9.57;;
15254;SDS011;7730;49.610;11.136;2024-01-07T09:44:59;15.23;;;7.77;;
15254;SDS011;7730;49.610;11.136;2024-01-07T09:47:28;14.77;;;7.40;;
15254;SDS011;7730;49.610;11.136;2024-01-07T09:49:56;16.73;;;9.70;;
15254;SDS011;7730;49.610;11.136;2024-01-07T09:52:24;15.50;;;9.17;;
15254;SDS011;7730;49.610;11.136;2024-01-07T09:54:53;16.27;;;9.60;;
15254;SDS011;7730;49.610;11.136;2024-01-07T09:57:22;15.00;;;8.07;;
15254;SDS011;7730;49.610;11.136;2024-01-07T09:59:50;15.07;;;7.47;;
15254;SDS011;7730;49.610;11.136;2024-01-07T10:02:17;14.80;;;8.20;;
15254;SDS011;7730;49.610;11.136;2024-01-07T10:04:45;15.30;;;7.97;;
15254;SDS011;7730;49.610;11.136;2024-01-07T10:07:13;14.20;;;7.17;;
15254;SDS011;7730;49.610;11.136;2024-01-07T10:09:41;15.60;;;7.80;;
15254;SDS011;7730;49.610;11.136;2024-01-07T10:12:08;14.27;;;7.57;;
15254;SDS011;7730;49.610;11.136;2024-01-07T10:14:37;14.63;;;6.93;;
15254;SDS011;7730;49.610;11.136;2024-01-07T10:17:15;19.17;;;10.70;;
15254;SDS011;7730;49.610;11.136;2024-01-07T10:19:43;14.87;;;7.60;;
15254;SDS011;7730;49.610;11.136;2024-01-07T10:22:12;15.03;;;7.23;;
15254;SDS011;7730;49.610;11.136;2024-01-07T10:24:39;14.63;;;8.53;;
15254;SDS011;7730;49.610;11.136;2024-01-07T10:27:08;15.20;;;7.57;;
15254;SDS011;7730;49.610;11.136;2024-01-07T10:29:36;13.87;;;6.07;;
15254;SDS011;7730;49.610;11.136;2024-01-07T10:32:03;15.23;;;5.80;;
15254;SDS011;7730;49.610;11.136;2024-01-07T10:34:31;14.30;;;7.20;;
15254;SDS011;7730;49.610;11.136;2024-01-07T10:37:02;14.90;;;7.27;;
15254;SDS011;7730;49.610;11.136;2024-01-07T10:39:30;15.57;;;7.80;;
15254;SDS011;7730;49.610;11.136;2024-01-07T10:41:57;14.60;;;7.37;;
15254;SDS011;7730;49.610;11.136;2024-01-07T10:44:29;15.47;;;7.80;;
15254;SDS011;7730;49.610;11.136;2024-01-07T10:46:57;16.70;;;9.60;;
15254;SDS011;7730;49.610;11.136;2024-01-07T10:49:25;15.50;;;8.83;;
15254;SDS011;7730;49.610;11.136;2024-01-07T10:51:56;14.53;;;7.60;;
15254;SDS011;7730;49.610;11.136;2024-01-07T10:54:24;15.27;;;7.67;;
15254;SDS011;7730;49.610;11.136;2024-01-07T10:56:56;14.53;;;7.37;;
15254;SDS011;7730;49.610;11.136;2024-01-07T10:59:24;14.30;;;7.60;;
15254;SDS011;7730;49.610;11.136;2024-01-07T11:01:54;15.10;;;7.77;;
15254;SDS011;7730;49.610;11.136;2024-01-07T11:04:22;13.37;;;6.80;;
15254;SDS011;7730;49.610;11.136;2024-01-07T11:06:51;15.13;;;7.97;;
15254;SDS011;7730;49.610;11.136;2024-01-07T11:09:23;14.13;;;7.10;;
15254;SDS011;7730;49.610;11.136;2024-01-07T11:11:54;15.17;;;7.63;;
15254;SDS011;7730;49.610;11.136;2024-01-07T11:14:34;14.30;;;7.67;;
15254;SDS011;7730;49.610;11.136;2024-01-07T11:17:02;14.57;;;7.30;;
15254;SDS011;7730;49.610;11.136;2024-01-07T11:19:30;14.27;;;6.83;;
15254;SDS011;7730;49.610;11.136;2024-01-07T11:24:43;13.83;;;6.50;;
15254;SDS011;7730;49.610;11.136;2024-01-07T11:27:10;14.10;;;6.60;;
15254;SDS011;7730;49.610;11.136;2024-01-07T11:29:37;14.20;;;6.70;;
15254;SDS011;7730;49.610;11.136;2024-01-07T11:32:06;14.63;;;6.97;;
15254;SDS011;7730;49.610;11.136;2024-01-07T11:34:40;13.40;;;6.33;;
15254;SDS011;7730;49.610;11.136;2024-01-07T11:37:09;13.60;;;6.60;;
15254;SDS011;7730;49.610;11.136;2024-01-07T11:39:41;15.07;;;6.60;;
15254;SDS011;7730;49.610;11.136;2024-01-07T11:42:08;13.80;;;6.60;;
15254;SDS011;7730;49.610;11.136;2024-01-07T11:44:35;13.37;;;6.20;;
15254;SDS011;7730;49.610;11.136;2024-01-07T11:47:04;13.23;;;6.10;;
15254;SDS011;7730;49.610;11.136;2024-01-07T11:49:33;15.17;;;6.60;;
15254;SDS011;7730;49.610;11.136;2024-01-07T11:52:00;13.90;;;6.15;;
15254;SDS011;7730;49.610;11.136;2024-01-07T11:54:27;13.40;;;6.50;;
15254;SDS011;7730;49.610;11.136;2024-01-07T11:56:55;13.80;;;6.50;;
15254;SDS011;7730;49.610;11.136;2024-01-07T11:59:22;14.20;;;6.53;;
15254;SDS011;7730;49.610;11.136;2024-01-07T12:01:51;13.47;;;6.47;;
15254;SDS011;7730;49.610;11.136;2024-01-07T12:04:19;13.80;;;6.47;;
15254;SDS011;7730;49.610;11.136;2024-01-07T12:06:48;14.67;;;6.70;;
15254;SDS011;7730;49.610;11.136;2024-01-07T12:09:16;13.70;;;6.20;;
15254;SDS011;7730;49.610;11.136;2024-01-07T12:11:43;14.47;;;7.57;;
15254;SDS011;7730;49.610;11.136;2024-01-07T12:14:13;13.17;;;6.57;;
15254;SDS011;7730;49.610;11.136;2024-01-07T12:16:41;14.47;;;7.90;;
15254;SDS011;7730;49.610;11.136;2024-01-07T12:19:08;13.30;;;6.50;;
15254;SDS011;7730;49.610;11.136;2024-01-07T12:21:35;12.97;;;6.30;;
15254;SDS011;7730;49.610;11.136;2024-01-07T12:24:04;14.10;;;6.50;;
15254;SDS011;7730;49.610;11.136;2024-01-07T12:26:32;12.83;;;6.00;;
15254;SDS011;7730;49.610;11.136;2024-01-07T12:29:02;12.07;;;5.63;;
15254;SDS011;7730;49.610;11.136;2024-01-07T12:31:31;12.77;;;5.73;;
15254;SDS011;7730;49.610;11.136;2024-01-07T12:33:59;12.50;;;5.40;;
15254;SDS011;7730;49.610;11.136;2024-01-07T12:36:29;14.53;;;5.93;;
15254;SDS011;7730;49.610;11.136;2024-01-07T12:38:56;13.37;;;5.80;;
15254;SDS011;7730;49.610;11.136;2024-01-07T12:41:29;13.83;;;6.33;;
15254;SDS011;7730;49.610;11.136;2024-01-07T12:43:56;13.43;;;6.10;;
15254;SDS011;7730;49.610;11.136;2024-01-07T12:46:23;13.67;;;5.90;;
15254;SDS011;7730;49.610;11.136;2024-01-07T12:48:50;12.67;;;5.70;;
15254;SDS011;7730;49.610;11.136;2024-01-07T12:51:17;14.50;;;6.50;;
15254;SDS011;7730;49.610;11.136;2024-01-07T12:53:44;13.03;;;6.00;;
15254;SDS011;7730;49.610;11.136;2024-01-07T12:56:13;9.47;;;4.03;;
15254;SDS011;7730;49.610;11.136;2024-01-07T12:58:41;11.73;;;5.53;;
15254;SDS011;7730;49.610;11.136;2024-01-07T13:01:08;12.70;;;5.23;;
15254;SDS011;7730;49.610;11.136;2024-01-07T13:03:35;12.47;;;5.33;;
15254;SDS011;7730;49.610;11.136;2024-01-07T13:06:02;13.87;;;5.83;;
15254;SDS011;7730;49.610;11.136;2024-01-07T13:08:29;14.00;;;6.40;;
15254;SDS011;7730;49.610;11.136;2024-01-07T13:10:58;12.40;;;5.10;;
15254;SDS011;7730;49.610;11.136;2024-01-07T13:13:25;19.13;;;8.60;;
15254;SDS011;7730;49.610;11.136;2024-01-07T13:15:54;13.67;;;5.87;;
15254;SDS011;7730;49.610;11.136;2024-01-07T13:18:26;17.23;;;7.23;;
15254;SDS011;7730;49.610;11.136;2024-01-07T13:20:53;11.73;;;5.23;;
15254;SDS011;7730;49.610;11.136;2024-01-07T13:23:20;14.67;;;6.37;;
15254;SDS011;7730;49.610;11.136;2024-01-07T13:25:47;15.27;;;7.20;;
15254;SDS011;7730;49.610;11.136;2024-01-07T13:28:14;13.50;;;5.03;;
15254;SDS011;7730;49.610;11.136;2024-01-07T13:30:44;11.03;;;4.67;;
15254;SDS011;7730;49.610;11.136;2024-01-07T13:33:12;10.93;;;4.60;;
15254;SDS011;7730;49.610;11.136;2024-01-07T13:35:42;12.00;;;4.60;;
15254;SDS011;7730;49.610;11.136;2024-01-07T13:38:09;9.90;;;4.40;;
15254;SDS011;7730;49.610;11.136;2024-01-07T13:40:36;10.80;;;4.80;;
15254;SDS011;7730;49.610;11.136;2024-01-07T13:43:03;16.00;;;7.10;;
15254;SDS011;7730;49.610;11.136;2024-01-07T13:45:30;9.63;;;4.50;;
15254;SDS011;7730;49.610;11.136;2024-01-07T13:47:57;13.80;;;5.87;;
15254;SDS011;7730;49.610;11.136;2024-01-07T13:50:26;10.97;;;4.90;;
15254;SDS011;7730;49.610;11.136;2024-01-07T13:52:52;10.80;;;4.50;;
15254;SDS011;7730;49.610;11.136;2024-01-07T13:55:19;9.03;;;4.03;;
15254;SDS011;7730;49.610;11.136;2024-01-07T13:57:47;10.00;;;4.37;;
15254;SDS011;7730;49.610;11.136;2024-01-07T14:00:15;9.17;;;4.20;;
15254;SDS011;7730;49.610;11.136;2024-01-07T14:02:43;9.83;;;4.20;;
15254;SDS011;7730;49.610;11.136;2024-01-07T14:05:11;10.40;;;4.60;;
15254;SDS011;7730;49.610;11.136;2024-01-07T14:07:40;9.87;;;4.30;;
15254;SDS011;7730;49.610;11.136;2024-01-07T14:10:07;10.17;;;4.47;;
15254;SDS011;7730;49.610;11.136;2024-01-07T14:12:34;10.67;;;4.70;;
15254;SDS011;7730;49.610;11.136;2024-01-07T14:15:01;9.67;;;4.30;;
15254;SDS011;7730;49.610;11.136;2024-01-07T14:17:30;9.73;;;4.30;;
15254;SDS011;7730;49.610;11.136;2024-01-07T14:19:57;9.80;;;4.10;;
15254;SDS011;7730;49.610;11.136;2024-01-07T14:22:24;9.40;;;4.30;;
15254;SDS011;7730;49.610;11.136;2024-01-07T14:24:52;8.60;;;4.00;;
15254;SDS011;7730;49.610;11.136;2024-01-07T14:27:19;8.47;;;3.80;;
15254;SDS011;7730;49.610;11.136;2024-01-07T14:29:46;9.40;;;4.30;;
15254;SDS011;7730;49.610;11.136;2024-01-07T14:32:13;11.33;;;4.83;;
15254;SDS011;7730;49.610;11.136;2024-01-07T14:34:40;8.87;;;4.07;;
15254;SDS011;7730;49.610;11.136;2024-01-07T14:37:08;10.17;;;4.20;;
15254;SDS011;7730;49.610;11.136;2024-01-07T14:39:36;10.67;;;4.43;;
15254;SDS011;7730;49.610;11.136;2024-01-07T14:42:04;11.57;;;5.03;;